Time;durP1;ratioP1;P1;durP2;ratioP2;P2;SDS_P1;SDS_P2;PMS_P1;PMS_P2;Temp;Humidity;BMP_temperature;BMP_pressure;BME280_temperature;BME280_humidity;BME280_pressure;Samples;Min_cycle;Max_cycle;Signal;HPM_P1;HPM_P2
2024/02/10 00:00:25;;;;;;;1.90;1.23;;;;;;;13.26;68.45;94562.72;4943236;28;20048;-79
2024/02/10 00:02:51;;;;;;;1.58;1.00;;;;;;;13.26;68.20;94560.09;4885646;29;20047;-77
2024/02/10 00:05:16;;;;;;;1.92;1.05;;;;;;;13.29;69.00;94565.44;4906352;29;20071;-78
2024/02/10 00:07:56;;;;;;;1.00;0.90;;;;;;;13.23;67.83;94568.56;4897653;28;20032;-77
2024/02/10 00:10:27;;;;;;;1.02;0.82;;;;;;;13.24;69.09;94570.13;4890877;28;20127;-78
2024/02/10 00:12:57;;;;;;;1.77;1.10;;;;;;;13.22;68.34;94562.59;4890319;29;20031;-76
2024/02/10 00:15:24;;;;;;;1.27;0.95;;;;;;;13.18;68.18;94558.34;4904226;29;20512;-77
2024/02/10 00:17:49;;;;;;;1.20;0.88;;;;;;;13.21;68.71;94562.91;4902145;29;20028;-78
2024/02/10 00:20:15;;;;;;;1.23;1.05;;;;;;;13.18;68.88;94558.34;4888760;29;20071;-78
2024/02/10 00:22:43;;;;;;;1.65;1.30;;;;;;;13.21;67.98;94545.41;4925552;28;20063;-78
2024/02/10 00:25:09;;;;;;;2.60;1.15;;;;;;;13.25;68.84;94548.13;4889436;29;20040;-78
2024/02/10 00:27:34;;;;;;;1.08;0.93;;;;;;;13.12;68.94;94547.34;4877891;28;20543;-78
2024/02/10 00:30:03;;;;;;;1.30;1.00;;;;;;;13.17;69.05;94551.59;4886438;28;20090;-78
2024/02/10 00:32:28;;;;;;;1.85;1.40;;;;;;;13.20;68.59;94548.34;4897452;28;20036;-78
2024/02/10 00:34:53;;;;;;;1.52;1.23;;;;;;;13.09;69.01;94546.16;4904558;29;20035;-77
2024/02/10 00:37:22;;;;;;;1.38;1.20;;;;;;;13.16;68.74;94548.25;4888121;29;20599;-77
2024/02/10 00:39:47;;;;;;;2.30;1.30;;;;;;;13.05;69.02;94547.13;4898595;29;20119;-78
2024/02/10 00:42:13;;;;;;;1.25;1.15;;;;;;;13.21;68.31;94545.41;4895373;29;20033;-78
2024/02/10 00:44:40;;;;;;;1.60;1.30;;;;;;;13.24;68.52;94539.50;4895988;28;20491;-77
2024/02/10 00:47:09;;;;;;;1.98;1.27;;;;;;;13.25;67.38;94542.91;4888428;29;20436;-78
2024/02/10 00:49:35;;;;;;;1.50;1.30;;;;;;;13.24;68.92;94544.75;4904887;29;20032;-77
2024/02/10 00:52:00;;;;;;;1.27;1.13;;;;;;;13.26;68.64;94534.75;4882457;28;20044;-77
2024/02/10 00:54:29;;;;;;;1.50;1.25;;;;;;;13.20;69.05;94533.44;4906223;28;20047;-78
2024/02/10 00:56:55;;;;;;;1.92;1.73;;;;;;;13.20;68.46;94538.66;4898344;29;20037;-78
2024/02/10 00:59:22;;;;;;;1.60;1.35;;;;;;;13.25;68.04;94530.59;4884842;28;20058;-78
2024/02/10 01:01:51;;;;;;;1.85;1.45;;;;;;;13.18;68.26;94530.38;4900853;28;20044;-77
2024/02/10 01:04:19;;;;;;;2.17;1.90;;;;;;;13.22;68.67;94526.03;4884545;28;20119;-78
2024/02/10 01:06:47;;;;;;;1.73;1.30;;;;;;;13.18;68.44;94527.00;4898857;28;20073;-78
2024/02/10 01:09:14;;;;;;;3.95;2.33;;;;;;;13.22;68.92;94528.63;4988405;28;20392;-78
2024/02/10 01:11:42;;;;;;;1.77;1.42;;;;;;;13.15;68.34;94519.81;4859488;28;20437;-77
2024/02/10 01:14:10;;;;;;;1.50;1.30;;;;;;;13.19;68.69;94520.69;4904866;28;20174;-78
2024/02/10 01:16:36;;;;;;;1.60;1.50;;;;;;;13.13;67.86;94522.75;4863245;29;20313;-77
2024/02/10 01:19:02;;;;;;;2.28;1.63;;;;;;;13.11;68.78;94517.84;4904290;28;20107;-78
2024/02/10 01:21:28;;;;;;;2.17;1.80;;;;;;;13.11;68.58;94515.25;4901084;28;20047;-77
2024/02/10 01:23:53;;;;;;;1.98;1.80;;;;;;;13.14;68.09;94518.28;4898994;28;20408;-77
2024/02/10 01:26:19;;;;;;;2.33;1.85;;;;;;;13.08;68.83;94515.13;4897444;28;20075;-78
2024/02/10 01:28:44;;;;;;;2.58;1.83;;;;;;;13.13;68.64;94511.56;4868644;29;20162;-78
2024/02/10 01:31:11;;;;;;;1.95;1.60;;;;;;;13.11;68.11;94501.44;4867437;28;20127;-77
2024/02/10 01:33:37;;;;;;;2.55;1.92;;;;;;;13.13;68.54;94504.47;4902086;28;20502;-78
2024/02/10 01:36:03;;;;;;;2.83;2.25;;;;;;;13.08;68.71;94495.00;4977577;28;20032;-78
2024/02/10 01:38:29;;;;;;;3.20;2.53;;;;;;;13.24;68.27;94510.03;4885088;28;20484;-78
2024/02/10 01:40:55;;;;;;;2.05;1.73;;;;;;;13.20;68.59;94507.31;4892730;28;20048;-78
2024/02/10 01:43:20;;;;;;;2.50;1.60;;;;;;;13.19;68.63;94499.78;4904162;29;20044;-78
2024/02/10 01:45:50;;;;;;;2.03;1.73;;;;;;;13.28;68.20;94509.06;4884658;28;20028;-77
2024/02/10 01:48:16;;;;;;;2.10;1.67;;;;;;;13.21;68.49;94506.22;4878419;28;20437;-78
2024/02/10 01:50:41;;;;;;;2.58;1.90;;;;;;;13.16;68.00;94506.44;4890355;29;20036;-79
2024/02/10 01:53:07;;;;;;;2.47;1.60;;;;;;;13.20;67.77;94502.06;4886225;29;20391;-78
2024/02/10 01:55:32;;;;;;;2.35;1.73;;;;;;;13.18;69.32;94503.47;4906075;29;20424;-77
2024/02/10 01:58:03;;;;;;;1.83;1.30;;;;;;;13.18;68.63;94496.41;4905759;28;20113;-78
2024/02/10 02:00:28;;;;;;;1.80;1.70;;;;;;;13.20;68.42;94496.09;4880498;29;20032;-78
2024/02/10 02:02:59;;;;;;;2.35;1.40;;;;;;;13.16;68.67;94496.00;4937131;28;20066;-78
2024/02/10 02:05:32;;;;;;;1.88;1.73;;;;;;;13.20;69.12;94503.94;4883463;29;20078;-78
2024/02/10 02:07:59;;;;;;;2.15;1.70;;;;;;;13.11;68.26;94507.41;4897022;28;20036;-77
2024/02/10 02:10:25;;;;;;;2.80;2.05;;;;;;;13.19;68.96;94492.69;4905573;29;20472;-77
2024/02/10 02:12:53;;;;;;;2.45;2.17;;;;;;;13.16;68.28;94487.38;4911494;28;20075;-79
2024/02/10 02:15:19;;;;;;;2.05;1.60;;;;;;;13.21;69.33;94490.53;4873688;29;20074;-79
2024/02/10 02:17:45;;;;;;;2.63;2.15;;;;;;;13.20;68.60;94494.25;4906912;28;20392;-78
2024/02/10 02:20:12;;;;;;;3.17;2.00;;;;;;;13.22;68.55;94489.44;4883421;29;20041;-83
2024/02/10 02:22:45;;;;;;;2.22;2.03;;;;;;;13.26;68.53;94492.94;4890244;28;20098;-83
2024/02/10 02:25:11;;;;;;;3.53;1.80;;;;;;;13.20;68.30;94488.25;4908441;29;20350;-83
2024/02/10 02:27:37;;;;;;;2.72;1.92;;;;;;;13.18;68.23;94485.19;4902607;29;20040;-81
2024/02/10 02:30:03;;;;;;;2.85;1.98;;;;;;;13.23;69.20;94484.97;4908482;29;20693;-82
2024/02/10 02:32:28;;;;;;;2.33;2.08;;;;;;;13.22;68.75;94489.44;4916495;29;20032;-83
2024/02/10 02:34:54;;;;;;;2.55;2.28;;;;;;;13.28;69.18;94488.16;4899806;29;20043;-82
2024/02/10 02:37:22;;;;;;;2.38;1.92;;;;;;;13.28;69.14;94477.69;4893070;29;20212;-83
2024/02/10 02:39:48;;;;;;;2.95;2.25;;;;;;;13.27;68.95;94478.78;4893468;28;20072;-83
2024/02/10 02:42:14;;;;;;;2.33;2.00;;;;;;;13.25;68.68;94461.91;4905014;29;20043;-83
2024/02/10 02:44:39;;;;;;;2.55;2.05;;;;;;;13.28;68.21;94464.63;4909565;28;20118;-83
2024/02/10 02:47:05;;;;;;;1.98;1.77;;;;;;;13.33;68.75;94473.34;4899191;29;20028;-82
2024/02/10 02:49:31;;;;;;;2.42;1.80;;;;;;;13.23;68.66;94464.84;4890412;29;20047;-83
2024/02/10 02:51:56;;;;;;;3.25;2.25;;;;;;;13.29;68.30;94468.00;4885287;28;20036;-84
2024/02/10 02:54:22;;;;;;;2.40;1.83;;;;;;;13.27;69.12;94470.94;4908325;29;20082;-83
2024/02/10 02:57:00;;;;;;;2.38;2.17;;;;;;;13.40;68.76;94468.31;4885434;29;20399;-83
2024/02/10 02:59:25;;;;;;;2.55;2.05;;;;;;;13.26;68.87;94458.97;4908444;29;20131;-83
2024/02/10 03:01:51;;;;;;;2.03;1.77;;;;;;;13.29;68.89;94468.75;4893622;29;20111;-83
2024/02/10 03:04:18;;;;;;;2.58;1.60;;;;;;;13.17;68.85;94460.91;4892262;29;20036;-81
2024/02/10 03:06:44;;;;;;;2.20;2.00;;;;;;;13.21;68.99;94463.63;4907190;29;20059;-84
2024/02/10 03:09:09;;;;;;;3.75;1.85;;;;;;;13.29;68.61;94462.75;4934225;28;20072;-85
2024/02/10 03:11:36;;;;;;;2.35;2.08;;;;;;;13.29;67.86;94465.38;4903556;29;20378;-83
2024/02/10 03:14:02;;;;;;;2.25;1.98;;;;;;;13.26;69.15;94473.88;4880989;29;20402;-83
2024/02/10 03:16:33;;;;;;;2.35;1.70;;;;;;;13.21;69.13;94472.25;4891536;28;20131;-84
2024/02/10 03:19:04;;;;;;;1.83;1.50;;;;;;;13.21;68.92;94458.41;4875406;29;20032;-84
2024/02/10 03:21:31;;;;;;;2.30;1.70;;;;;;;13.31;68.75;94471.03;4899914;29;20044;-82
2024/02/10 03:24:01;;;;;;;3.63;1.83;;;;;;;13.26;69.01;94464.19;4900120;29;20028;-82
2024/02/10 03:26:28;;;;;;;1.65;1.55;;;;;;;13.23;68.62;94454.41;4968368;28;20098;-83
2024/02/10 03:28:54;;;;;;;1.95;1.33;;;;;;;13.31;68.76;94463.19;4893098;28;20028;-83
2024/02/10 03:31:20;;;;;;;2.20;1.45;;;;;;;13.29;68.95;94463.53;4907215;29;20268;-84
2024/02/10 03:33:45;;;;;;;1.58;1.30;;;;;;;13.23;68.36;94451.78;4907032;29;20040;-84
2024/02/10 03:36:10;;;;;;;2.03;1.83;;;;;;;13.21;69.15;94463.63;4898371;28;20041;-84
2024/02/10 03:38:36;;;;;;;1.90;1.60;;;;;;;13.22;69.27;94452.84;4912263;29;20032;-85
2024/02/10 03:41:01;;;;;;;1.88;1.50;;;;;;;13.23;69.29;94454.41;4893348;28;20345;-84
2024/02/10 03:43:27;;;;;;;2.08;1.23;;;;;;;13.25;68.21;94459.28;4899787;29;20531;-85
2024/02/10 03:45:56;;;;;;;2.00;1.63;;;;;;;13.28;68.56;94456.00;4889808;28;20031;-83
2024/02/10 03:48:21;;;;;;;1.95;1.38;;;;;;;13.19;68.23;94460.59;4907410;29;20040;-84
2024/02/10 03:50:47;;;;;;;2.47;1.33;;;;;;;13.22;68.55;94455.47;4895890;29;20032;-84
2024/02/10 03:53:13;;;;;;;2.00;1.70;;;;;;;13.21;68.41;94455.81;4912462;29;20119;-83
2024/02/10 03:55:41;;;;;;;3.00;1.58;;;;;;;13.20;68.62;94444.59;4938983;28;20608;-80
2024/02/10 03:58:08;;;;;;;1.70;1.48;;;;;;;13.24;68.62;94445.44;4894885;29;20122;-85
2024/02/10 04:00:38;;;;;;;2.63;2.17;;;;;;;13.22;68.48;94445.03;4916749;29;20043;-82
2024/02/10 04:03:04;;;;;;;2.47;1.73;;;;;;;13.24;68.06;94442.84;4912585;29;20062;-84
2024/02/10 04:05:39;;;;;;;2.13;1.60;;;;;;;13.31;69.13;94450.13;4893148;28;20032;-82
2024/02/10 04:08:06;;;;;;;3.85;1.92;;;;;;;13.32;68.39;94445.72;4896499;28;20046;-82
2024/02/10 04:10:31;;;;;;;2.10;1.90;;;;;;;13.24;68.99;94445.44;4914783;29;20127;-83
2024/02/10 04:12:57;;;;;;;3.58;2.03;;;;;;;13.25;68.46;94446.97;4896578;28;20536;-84
2024/02/10 04:15:22;;;;;;;1.75;1.48;;;;;;;13.28;68.17;94451.56;4978070;28;20028;-84
2024/02/10 04:17:52;;;;;;;2.17;1.48;;;;;;;13.26;68.58;94453.75;4892864;29;20020;-83
2024/02/10 04:20:23;;;;;;;1.77;1.35;;;;;;;13.24;68.55;94450.69;4990101;28;20079;-81
2024/02/10 04:22:51;;;;;;;2.30;1.58;;;;;;;13.30;68.88;94451.22;4907113;28;20033;-82
2024/02/10 04:25:17;;;;;;;2.47;2.15;;;;;;;13.22;68.62;94446.88;4895673;28;20028;-83
2024/02/10 04:27:42;;;;;;;2.15;1.25;;;;;;;13.20;69.25;94443.84;4921173;29;20475;-84
2024/02/10 04:30:10;;;;;;;1.92;1.42;;;;;;;13.18;69.15;94438.94;4897772;29;20047;-84
2024/02/10 04:32:42;;;;;;;1.85;1.33;;;;;;;13.21;68.79;94440.91;4916450;29;20075;-84
2024/02/10 04:35:09;;;;;;;1.50;1.30;;;;;;;13.01;68.28;94426.09;4913151;29;20129;-85
2024/02/10 04:37:35;;;;;;;1.63;1.23;;;;;;;13.01;68.39;94424.25;4935844;28;20563;-85
2024/02/10 04:40:02;;;;;;;1.52;1.33;;;;;;;13.03;68.50;94435.13;4897562;28;20051;-85
2024/02/10 04:42:28;;;;;;;1.45;1.17;;;;;;;12.90;68.13;94431.78;4907420;29;20110;-79
2024/02/10 04:44:59;;;;;;;1.67;1.10;;;;;;;12.91;68.58;94438.50;4885387;28;20556;-79
2024/02/10 04:47:25;;;;;;;1.50;1.30;;;;;;;12.87;68.09;94445.47;4891774;28;20126;-79
2024/02/10 04:49:51;;;;;;;1.67;1.58;;;;;;;12.83;68.17;94441.97;4899074;29;20044;-79
2024/02/10 04:52:18;;;;;;;3.85;1.63;;;;;;;12.77;68.59;94442.53;4905695;29;20048;-79
2024/02/10 04:54:44;;;;;;;2.60;1.40;;;;;;;12.73;68.45;94442.41;4889449;29;20032;-79
2024/02/10 04:57:09;;;;;;;2.72;1.50;;;;;;;12.71;68.05;94436.75;4907200;29;20028;-79
2024/02/10 04:59:34;;;;;;;2.95;1.95;;;;;;;12.69;68.43;94438.91;4899376;29;20040;-79
2024/02/10 05:02:02;;;;;;;1.83;1.30;;;;;;;12.61;68.67;94418.88;4874896;29;20127;-79
2024/02/10 05:04:27;;;;;;;1.58;1.40;;;;;;;12.58;68.51;94427.38;4902821;29;20488;-79
2024/02/10 05:06:53;;;;;;;1.80;1.15;;;;;;;12.52;68.10;94432.03;4905750;29;20043;-80
2024/02/10 05:09:18;;;;;;;2.10;1.27;;;;;;;12.47;68.80;94437.47;4892094;29;20046;-79
2024/02/10 05:11:43;;;;;;;1.50;1.33;;;;;;;12.48;68.01;94437.16;4891574;29;20547;-79
2024/02/10 05:14:12;;;;;;;1.60;1.38;;;;;;;12.39;68.70;94423.44;4890146;28;20400;-80
2024/02/10 05:16:38;;;;;;;2.30;1.10;;;;;;;12.42;68.19;94437.69;4872986;28;20040;-79
2024/02/10 05:19:04;;;;;;;1.40;1.13;;;;;;;12.37;68.58;94436.03;4906668;29;20042;-80
2024/02/10 05:21:31;;;;;;;2.25;1.27;;;;;;;12.33;68.57;94435.91;4889819;29;20039;-79
2024/02/10 05:24:07;;;;;;;1.50;1.10;;;;;;;12.33;68.13;94440.38;4896553;28;20036;-80
2024/02/10 05:26:37;;;;;;;1.02;0.90;;;;;;;12.34;68.35;94426.25;4876709;29;20044;-80
2024/02/10 05:29:07;;;;;;;1.33;0.85;;;;;;;12.29;68.79;94426.47;4892477;29;20514;-80
2024/02/10 05:31:38;;;;;;;1.67;1.20;;;;;;;12.34;68.60;94431.47;4905252;29;20054;-84
2024/02/10 05:34:04;;;;;;;1.83;1.40;;;;;;;12.24;67.93;94434.50;4897863;29;20032;-84
2024/02/10 05:36:34;;;;;;;6.82;4.22;;;;;;;12.05;67.73;94414.88;4891791;29;20117;-86
2024/02/10 05:39:01;;;;;;;10.38;3.47;;;;;;;12.03;68.69;94427.47;4927023;29;20039;-86
2024/02/10 05:41:27;;;;;;;4.25;2.65;;;;;;;11.99;68.74;94429.97;4898473;29;20036;-88
2024/02/10 05:43:53;;;;;;;8.73;6.38;;;;;;;11.89;68.14;94416.50;4897189;29;20028;-87
2024/02/10 05:46:19;;;;;;;10.13;8.75;;;;;;;11.97;68.28;94428.75;4880230;29;20028;-85
2024/02/10 05:48:44;;;;;;;8.38;7.50;;;;;;;11.96;67.90;94432.41;4911487;29;20535;-85
2024/02/10 05:51:13;;;;;;;6.57;5.72;;;;;;;11.90;67.81;94425.88;4893254;28;20045;-85
2024/02/10 05:53:38;;;;;;;6.72;5.53;;;;;;;11.77;68.43;94420.59;4909147;29;20118;-79
2024/02/10 05:56:05;;;;;;;6.85;5.50;;;;;;;11.80;67.44;94432.97;4903331;28;20163;-80
2024/02/10 05:58:31;;;;;;;4.45;3.60;;;;;;;11.67;68.03;94428.03;4891043;29;20499;-79
2024/02/10 06:00:56;;;;;;;3.45;2.83;;;;;;;11.60;67.04;94421.50;4905466;29;20043;-80
2024/02/10 06:03:22;;;;;;;2.20;1.88;;;;;;;11.55;67.61;94419.09;4884448;29;20044;-80
2024/02/10 06:05:47;;;;;;;11.32;3.72;;;;;;;11.42;67.03;94420.09;4887340;28;20378;-80
2024/02/10 06:08:13;;;;;;;15.10;4.03;;;;;;;11.35;68.19;94420.59;4906723;29;20493;-80
2024/02/10 06:10:39;;;;;;;4.93;2.55;;;;;;;11.43;67.78;94427.59;4906821;29;20050;-80
2024/02/10 06:13:05;;;;;;;2.70;2.10;;;;;;;11.47;67.80;94434.78;4902499;29;20063;-79
2024/02/10 06:15:30;;;;;;;2.00;1.80;;;;;;;11.40;67.57;94424.84;4883814;29;20062;-79
2024/02/10 06:17:57;;;;;;;2.20;2.00;;;;;;;11.45;67.53;94435.09;4898847;29;20082;-79
2024/02/10 06:20:23;;;;;;;2.90;2.45;;;;;;;11.37;67.49;94433.31;4882403;29;20507;-79
2024/02/10 06:22:50;;;;;;;2.13;1.92;;;;;;;11.33;67.15;94438.38;4893668;29;20070;-80
2024/02/10 06:25:22;;;;;;;1.85;1.20;;;;;;;11.24;67.61;94440.25;4906266;28;20451;-79
2024/02/10 06:27:56;;;;;;;1.20;1.10;;;;;;;11.27;66.97;94444.09;4892308;29;20036;-79
2024/02/10 06:30:25;;;;;;;1.30;1.20;;;;;;;11.18;67.06;94444.13;4922065;28;20044;-79
2024/02/10 06:32:50;;;;;;;1.50;1.40;;;;;;;11.13;67.41;94441.72;4889424;29;20269;-79
2024/02/10 06:35:19;;;;;;;1.90;1.60;;;;;;;11.15;67.89;94444.75;4876477;29;20039;-79
2024/02/10 06:37:49;;;;;;;2.00;1.80;;;;;;;11.15;68.03;94447.38;4875577;29;20083;-79
2024/02/10 06:40:17;;;;;;;4.93;1.70;;;;;;;11.13;68.21;94444.31;4883841;29;20040;-79
2024/02/10 06:42:46;;;;;;;6.38;4.55;;;;;;;10.98;67.42;94432.59;4904680;29;20492;-84
2024/02/10 06:45:14;;;;;;;9.73;4.78;;;;;;;11.02;67.75;94446.53;4890366;29;20040;-85
2024/02/10 06:47:43;;;;;;;5.65;3.70;;;;;;;11.09;67.54;94443.41;4898162;29;20491;-84
2024/02/10 06:50:11;;;;;;;5.13;3.63;;;;;;;11.03;67.80;94448.03;4891221;28;20036;-84
2024/02/10 06:52:37;;;;;;;5.65;4.32;;;;;;;10.99;67.41;94440.09;4874409;29;20375;-84
2024/02/10 06:55:03;;;;;;;4.50;3.10;;;;;;;10.98;67.33;94446.38;4892498;28;20036;-84
2024/02/10 06:57:32;;;;;;;3.17;2.15;;;;;;;10.93;67.14;94432.78;4904618;29;20024;-84
2024/02/10 06:59:58;;;;;;;5.10;4.00;;;;;;;10.95;67.94;94444.41;4881724;29;20041;-84
2024/02/10 07:02:24;;;;;;;3.83;3.00;;;;;;;10.94;67.57;94442.88;4904899;28;20111;-83
2024/02/10 07:04:52;;;;;;;5.13;3.30;;;;;;;10.92;67.24;94433.88;4890871;29;20600;-83
2024/02/10 07:07:23;;;;;;;3.60;2.85;;;;;;;11.01;67.60;94442.38;4873559;29;20047;-83
2024/02/10 07:09:49;;;;;;;4.40;2.83;;;;;;;10.97;68.02;94444.84;4910465;29;20036;-83
2024/02/10 07:12:14;;;;;;;3.10;2.28;;;;;;;11.01;68.30;94448.34;4899937;29;20429;-83
2024/02/10 07:14:44;;;;;;;2.67;2.28;;;;;;;11.05;68.12;94446.66;4875393;29;20458;-84
2024/02/10 07:17:09;;;;;;;4.00;3.17;;;;;;;10.99;68.25;94434.88;4912929;29;20040;-84
2024/02/10 07:19:36;;;;;;;6.72;4.72;;;;;;;10.96;67.71;94427.69;4917585;28;20035;-85
2024/02/10 07:22:05;;;;;;;10.95;7.95;;;;;;;11.05;67.86;94438.84;4913073;28;20492;-84
2024/02/10 07:24:32;;;;;;;16.40;11.65;;;;;;;10.94;68.59;94437.66;4908812;29;20048;-83
2024/02/10 07:26:58;;;;;;;12.88;10.07;;;;;;;10.99;67.60;94440.09;4911398;28;20516;-84
2024/02/10 07:29:24;;;;;;;8.43;6.90;;;;;;;11.03;68.25;94435.00;4908575;29;20472;-84
2024/02/10 07:31:50;;;;;;;5.63;4.22;;;;;;;11.06;68.14;94442.22;4893840;29;20040;-84
2024/02/10 07:34:17;;;;;;;3.92;3.25;;;;;;;11.04;68.20;94436.56;4903975;29;20630;-84
2024/02/10 07:36:43;;;;;;;3.00;2.60;;;;;;;11.11;68.50;94441.28;4888800;28;20037;-84
2024/02/10 07:39:08;;;;;;;4.18;2.05;;;;;;;11.18;68.02;94451.94;4894095;29;20040;-84
2024/02/10 07:41:35;;;;;;;1.85;1.42;;;;;;;11.24;68.42;94446.25;4975381;28;20040;-84
2024/02/10 07:44:02;;;;;;;1.55;1.45;;;;;;;11.38;68.45;94455.69;4897018;29;20042;-82
2024/02/10 07:46:34;;;;;;;1.98;1.70;;;;;;;11.41;68.28;94450.59;4890482;28;20126;-83
2024/02/10 07:49:03;;;;;;;1.90;1.52;;;;;;;11.47;68.75;94460.84;4892399;29;20123;-82
2024/02/10 07:51:30;;;;;;;2.67;1.67;;;;;;;11.62;69.13;94468.09;4893924;28;20047;-82
2024/02/10 07:53:59;;;;;;;1.92;1.50;;;;;;;11.62;69.40;94453.22;4903528;29;20043;-79
2024/02/10 07:56:28;;;;;;;1.52;1.20;;;;;;;11.67;68.49;94454.09;4892585;28;20570;-79
2024/02/10 07:58:58;;;;;;;4.57;1.70;;;;;;;11.77;69.66;94464.13;4893495;29;20032;-79
2024/02/10 08:01:30;;;;;;;2.70;1.20;;;;;;;11.84;68.31;94448.75;4884842;29;20392;-79
2024/02/10 08:03:56;;;;;;;2.30;1.77;;;;;;;11.85;69.41;94452.13;4905837;29;20048;-79
2024/02/10 08:06:26;;;;;;;3.28;2.40;;;;;;;11.97;69.68;94466.00;4992175;28;20040;-79
2024/02/10 08:09:01;;;;;;;3.05;2.45;;;;;;;12.03;69.07;94468.41;4906192;29;20501;-79
2024/02/10 08:11:29;;;;;;;4.25;2.63;;;;;;;12.03;69.07;94468.41;4900278;29;20044;-80
2024/02/10 08:13:56;;;;;;;4.68;3.20;;;;;;;12.02;69.29;94472.13;4890015;28;20031;-80
2024/02/10 08:16:27;;;;;;;3.17;2.67;;;;;;;12.07;68.89;94479.75;4889222;28;20036;-79
2024/02/10 08:18:59;;;;;;;4.32;2.58;;;;;;;12.06;68.82;94471.13;4893094;29;20609;-80
2024/02/10 08:21:26;;;;;;;6.80;5.07;;;;;;;12.11;69.17;94473.56;4868613;29;20606;-80
2024/02/10 08:23:52;;;;;;;7.28;5.18;;;;;;;12.07;69.31;94448.44;4895340;28;20506;-80
2024/02/10 08:26:21;;;;;;;6.50;5.03;;;;;;;12.12;69.42;94440.44;4898500;29;20035;-80
2024/02/10 08:28:51;;;;;;;8.30;6.68;;;;;;;12.15;69.11;94445.75;4886944;28;20036;-80
2024/02/10 08:31:19;;;;;;;10.07;8.73;;;;;;;12.22;69.21;94441.84;4899058;29;20032;-80
2024/02/10 08:33:47;;;;;;;15.10;12.77;;;;;;;12.08;69.25;94424.66;4891306;29;20036;-80
2024/02/10 08:36:16;;;;;;;15.80;13.52;;;;;;;11.99;68.29;94437.00;4985800;28;20028;-81
2024/02/10 08:38:41;;;;;;;14.82;10.60;;;;;;;12.03;68.98;94439.72;4907987;29;20158;-80
2024/02/10 08:41:07;;;;;;;11.65;9.45;;;;;;;12.08;68.78;94434.31;4905449;28;20186;-80
2024/02/10 08:43:32;;;;;;;10.50;8.68;;;;;;;12.12;68.89;94427.38;4905688;29;20570;-80
2024/02/10 08:46:00;;;;;;;9.27;6.80;;;;;;;12.13;69.48;94421.84;4906733;28;20032;-80
2024/02/10 08:48:26;;;;;;;5.85;5.20;;;;;;;12.25;68.52;94420.34;4874619;29;20119;-80
2024/02/10 08:50:53;;;;;;;5.38;4.47;;;;;;;12.35;68.66;94423.31;4889807;29;20480;-80
2024/02/10 08:53:19;;;;;;;5.72;4.10;;;;;;;12.38;68.54;94421.16;4874669;28;20396;-80
2024/02/10 08:55:44;;;;;;;5.35;3.75;;;;;;;12.42;69.28;94425.38;4892513;28;20032;-81
2024/02/10 08:58:10;;;;;;;4.65;4.07;;;;;;;12.45;69.29;94427.34;4889427;29;20389;-80
2024/02/10 09:00:35;;;;;;;3.88;3.47;;;;;;;12.44;69.19;94420.63;4885554;28;20117;-80
2024/02/10 09:03:00;;;;;;;4.50;3.65;;;;;;;12.63;69.25;94435.00;4937050;28;20052;-80
2024/02/10 09:05:26;;;;;;;6.28;4.90;;;;;;;12.68;68.60;94432.16;4888186;29;20059;-80
2024/02/10 09:07:52;;;;;;;6.32;4.55;;;;;;;12.69;68.62;94438.91;4897640;29;20039;-80
2024/02/10 09:10:18;;;;;;;6.13;4.75;;;;;;;12.73;68.73;94437.94;4889510;28;20036;-80
2024/02/10 09:12:44;;;;;;;6.47;4.95;;;;;;;12.71;68.91;94428.91;4899505;29;20492;-81
2024/02/10 09:15:10;;;;;;;4.15;3.08;;;;;;;12.74;69.82;94438.72;4896606;28;20404;-80
2024/02/10 09:17:36;;;;;;;3.35;2.78;;;;;;;12.84;68.76;94451.34;4881024;28;20036;-80
2024/02/10 09:20:01;;;;;;;2.50;2.30;;;;;;;12.83;68.85;94436.75;4935481;29;20032;-80
2024/02/10 09:22:26;;;;;;;2.00;1.80;;;;;;;12.84;68.58;94440.91;4893134;29;20396;-80
2024/02/10 09:24:54;;;;;;;1.67;1.45;;;;;;;12.87;69.37;94442.84;4905418;29;20036;-80
2024/02/10 09:27:21;;;;;;;2.53;2.15;;;;;;;12.97;68.25;94451.34;4900165;29;20047;-80
2024/02/10 09:29:46;;;;;;;2.30;2.10;;;;;;;12.91;68.99;94445.56;4880468;29;20340;-81
2024/02/10 09:32:14;;;;;;;2.10;1.80;;;;;;;12.96;68.83;94440.13;4887390;29;20489;-81
2024/02/10 09:34:40;;;;;;;1.70;1.60;;;;;;;13.01;68.22;94436.56;4908324;29;20032;-80
2024/02/10 09:37:06;;;;;;;1.63;1.52;;;;;;;13.04;68.95;94439.28;4889938;28;20032;-81
2024/02/10 09:39:33;;;;;;;1.27;1.17;;;;;;;13.09;68.87;94438.28;4930741;28;20050;-81
2024/02/10 09:42:03;;;;;;;2.15;1.52;;;;;;;13.17;69.40;94444.50;4898932;29;20043;-80
2024/02/10 09:44:28;;;;;;;1.92;1.60;;;;;;;13.18;68.78;94452.00;4888898;29;20259;-80
2024/02/10 09:46:56;;;;;;;2.10;1.30;;;;;;;13.30;69.46;94453.84;4888327;28;20048;-81
2024/02/10 09:49:23;;;;;;;2.55;1.58;;;;;;;13.25;69.29;94449.59;4904901;28;20524;-81
2024/02/10 09:51:49;;;;;;;1.92;1.45;;;;;;;13.32;69.39;94456.16;4885728;29;20120;-81
2024/02/10 09:54:14;;;;;;;2.45;2.25;;;;;;;13.32;69.36;94449.06;4903078;29;20111;-80
2024/02/10 09:56:40;;;;;;;2.30;1.85;;;;;;;13.41;68.37;94454.19;4897640;29;20276;-80
2024/02/10 09:59:13;;;;;;;2.05;1.80;;;;;;;13.44;68.82;94436.00;4904853;29;20032;-81
2024/02/10 10:01:39;;;;;;;2.88;2.28;;;;;;;13.47;68.56;94460.72;4895054;29;20041;-80
2024/02/10 10:04:10;;;;;;;2.88;2.00;;;;;;;13.51;68.82;94458.97;4903553;29;20032;-81
2024/02/10 10:06:39;;;;;;;3.15;2.10;;;;;;;13.58;69.18;94451.31;4866430;29;20119;-81
2024/02/10 10:09:05;;;;;;;2.97;2.75;;;;;;;13.65;69.58;94456.00;4896117;29;20036;-82
2024/02/10 10:11:37;;;;;;;2.97;2.67;;;;;;;13.73;69.13;94449.13;4904423;28;20472;-82
2024/02/10 10:14:02;;;;;;;3.70;3.30;;;;;;;13.73;69.26;94446.50;4880892;28;20123;-81
2024/02/10 10:16:28;;;;;;;3.08;2.25;;;;;;;13.66;69.24;94455.66;4890212;29;20428;-80
2024/02/10 10:18:57;;;;;;;2.72;2.00;;;;;;;13.80;69.19;94454.53;4908220;29;20033;-81
2024/02/10 10:21:24;;;;;;;1.85;1.60;;;;;;;13.62;69.79;94444.34;4908693;29;20113;-79
2024/02/10 10:23:49;;;;;;;1.80;1.45;;;;;;;13.76;69.81;94445.81;4906811;29;20040;-80
2024/02/10 10:26:14;;;;;;;3.55;1.40;;;;;;;13.82;69.63;94447.88;4923818;28;20273;-80
2024/02/10 10:28:44;;;;;;;1.80;1.23;;;;;;;13.93;68.79;94453.41;4871922;29;20062;-80
2024/02/10 10:31:10;;;;;;;1.48;1.10;;;;;;;13.83;68.68;94443.44;4883673;29;20425;-81
2024/02/10 10:33:36;;;;;;;1.35;1.23;;;;;;;13.92;68.12;94451.88;4905176;29;20040;-79
2024/02/10 10:36:03;;;;;;;1.88;1.30;;;;;;;14.04;69.24;94438.75;4893229;29;20036;-81
2024/02/10 10:38:29;;;;;;;3.28;1.48;;;;;;;14.10;68.34;94444.50;4909580;28;20039;-80
2024/02/10 10:40:56;;;;;;;1.90;1.15;;;;;;;14.21;68.42;94447.41;4877430;28;20052;-79
2024/02/10 10:43:23;;;;;;;2.38;1.13;;;;;;;14.27;68.22;94440.09;4893504;28;20488;-81
2024/02/10 10:45:49;;;;;;;2.53;1.17;;;;;;;14.16;68.75;94421.50;4917754;29;20024;-82
2024/02/10 10:48:14;;;;;;;1.88;1.30;;;;;;;14.20;68.98;94412.63;4908008;29;20068;-82
2024/02/10 10:50:40;;;;;;;1.88;1.02;;;;;;;14.20;68.86;94404.78;4897777;28;20060;-82
2024/02/10 10:53:09;;;;;;;0.80;0.80;;;;;;;14.18;67.99;94406.97;4900126;29;20041;-82
2024/02/10 10:55:43;;;;;;;0.77;0.68;;;;;;;14.39;68.68;94405.97;4891892;29;20056;-82
2024/02/10 10:58:11;;;;;;;1.00;0.80;;;;;;;14.39;68.50;94401.53;4889479;28;20078;-83
2024/02/10 11:00:41;;;;;;;0.65;0.63;;;;;;;14.29;68.25;94385.53;4873733;29;20131;-81
2024/02/10 11:03:08;;;;;;;0.70;0.60;;;;;;;14.31;67.32;94383.34;4891374;29;20493;-82
2024/02/10 11:05:40;;;;;;;0.98;0.70;;;;;;;14.39;67.15;94395.50;4900143;29;20123;-81
2024/02/10 11:08:06;;;;;;;1.35;0.77;;;;;;;14.37;67.54;94385.38;4907500;29;20163;-82
2024/02/10 11:10:44;;;;;;;0.60;0.50;;;;;;;14.52;67.12;94373.41;4900411;29;20032;-81
2024/02/10 11:13:20;;;;;;;1.25;0.80;;;;;;;14.51;66.24;94373.72;4884516;29;20070;-80
2024/02/10 11:15:46;;;;;;;0.95;0.60;;;;;;;14.42;67.19;94366.06;4889541;28;20127;-80
2024/02/10 11:18:17;;;;;;;1.08;0.98;;;;;;;14.46;67.41;94363.50;4873529;29;20556;-80
2024/02/10 11:20:42;;;;;;;1.35;0.98;;;;;;;14.29;67.80;94347.06;4889814;28;20079;-79
2024/02/10 11:23:18;;;;;;;1.60;1.05;;;;;;;14.48;67.11;94356.84;4904909;29;20171;-81
2024/02/10 11:25:44;;;;;;;1.55;0.90;;;;;;;14.49;67.12;94352.38;4904141;29;20043;-81
2024/02/10 11:28:26;;;;;;;1.00;0.90;;;;;;;14.42;67.12;94342.50;4888944;29;20032;-79
2024/02/10 11:30:52;;;;;;;0.90;0.85;;;;;;;14.35;67.89;94332.59;4887505;29;20036;-80
2024/02/10 11:33:22;;;;;;;0.70;0.70;;;;;;;14.47;66.32;94323.91;4905795;29;20036;-79